Time;durP1;ratioP1;P1;durP2;ratioP2;P2;SDS_P1;SDS_P2;PMS_P1;PMS_P2;Temp;Humidity;BMP_temperature;BMP_pressure;BME280_temperature;BME280_humidity;BME280_pressure;Samples;Min_cycle;Max_cycle;Signal;HPM_P1;HPM_P2
2022/07/19 00:00:48;;;;;;;14.48;5.15;;;;;;;23.33;55.61;101751.81;5053010;28;20033;-36
2022/07/19 00:03:14;;;;;;;11.00;5.38;;;;;;;23.31;56.03;101745.75;5053016;28;20048;-36
2022/07/19 00:05:40;;;;;;;9.85;5.75;;;;;;;23.36;56.28;101751.34;5053035;28;20532;-36
2022/07/19 00:08:05;;;;;;;9.30;5.28;;;;;;;23.33;56.31;101751.81;5051991;28;20107;-37
2022/07/19 00:10:31;;;;;;;7.78;5.25;;;;;;;23.29;56.56;101745.13;5051680;28;20368;-35
2022/07/19 00:12:56;;;;;;;10.98;5.72;;;;;;;23.25;56.80;101741.22;5053090;28;20103;-37
2022/07/19 00:15:21;;;;;;;11.07;5.68;;;;;;;23.23;56.61;101743.38;5052899;28;20114;-35
2022/07/19 00:17:48;;;;;;;15.15;5.30;;;;;;;23.19;56.90;101736.69;5052941;28;20029;-34
2022/07/19 00:20:15;;;;;;;12.88;5.20;;;;;;;23.17;57.10;101738.84;5052813;28;20025;-41
2022/07/19 00:22:40;;;;;;;10.35;4.85;;;;;;;23.18;57.21;101746.03;5052765;28;20029;-39
2022/07/19 00:25:06;;;;;;;8.90;5.93;;;;;;;23.18;57.26;101741.38;5051319;28;20032;-36
2022/07/19 00:27:33;;;;;;;9.23;5.05;;;;;;;23.12;57.28;101736.03;5052610;28;20112;-38
2022/07/19 00:29:58;;;;;;;10.25;5.78;;;;;;;23.07;58.01;101738.69;5052642;28;20040;-36
2022/07/19 00:32:24;;;;;;;17.02;6.32;;;;;;;23.07;57.31;101738.69;5052682;28;20029;-39
2022/07/19 00:34:49;;;;;;;11.43;5.60;;;;;;;23.02;57.77;101736.66;5052405;28;20025;-37
2022/07/19 00:37:15;;;;;;;10.13;5.70;;;;;;;23.06;57.80;101736.97;5051230;28;20044;-34
2022/07/19 00:39:40;;;;;;;13.38;5.63;;;;;;;23.12;57.74;101741.53;5052435;28;20029;-37
2022/07/19 00:42:07;;;;;;;14.05;5.40;;;;;;;23.13;57.85;101743.19;5052905;28;20027;-40
2022/07/19 00:44:32;;;;;;;10.65;5.18;;;;;;;23.11;57.97;101742.59;5051032;28;20029;-37
2022/07/19 00:46:58;;;;;;;8.75;5.50;;;;;;;23.07;57.91;101738.69;5052268;28;20500;-37
2022/07/19 00:49:23;;;;;;;12.80;5.55;;;;;;;22.98;57.88;101733.53;5052276;28;20021;-40
2022/07/19 00:51:53;;;;;;;14.20;6.05;;;;;;;22.94;58.07;101739.75;5052214;28;20025;-34
2022/07/19 00:54:20;;;;;;;11.27;5.53;;;;;;;22.87;58.69;101739.88;5052298;28;20313;-38
2022/07/19 00:56:48;;;;;;;10.63;5.60;;;;;;;22.81;58.78;101732.63;5050896;28;20365;-37
2022/07/19 00:59:14;;;;;;;8.70;5.43;;;;;;;22.77;58.86;101734.16;5052343;28;20020;-38
2022/07/19 01:01:39;;;;;;;10.98;5.97;;;;;;;22.78;58.96;101741.34;5051780;28;20114;-35
2022/07/19 01:04:05;;;;;;;9.15;5.88;;;;;;;22.75;58.83;101731.69;5051882;28;20049;-34
2022/07/19 01:06:30;;;;;;;13.13;6.15;;;;;;;22.71;59.21;101735.13;5052127;28;20021;-35
2022/07/19 01:08:56;;;;;;;9.60;5.22;;;;;;;22.68;59.25;101738.38;5050656;28;20329;-37
2022/07/19 01:11:22;;;;;;;9.50;5.70;;;;;;;22.64;59.07;101735.25;5052015;28;20028;-39
2022/07/19 01:13:48;;;;;;;9.73;5.70;;;;;;;22.58;58.73;101733.47;5034263;28;20021;-37
2022/07/19 01:16:14;;;;;;;9.70;5.43;;;;;;;22.54;58.95;101735.88;5051926;28;20071;-39
2022/07/19 01:18:40;;;;;;;10.93;5.78;;;;;;;22.46;59.53;101725.28;5052069;28;20087;-38
2022/07/19 01:21:05;;;;;;;11.45;5.22;;;;;;;22.45;59.44;101723.59;5051808;28;20036;-37
2022/07/19 01:23:30;;;;;;;12.48;6.05;;;;;;;22.45;59.71;101714.53;5051600;28;20021;-36
2022/07/19 01:25:56;;;;;;;9.85;5.90;;;;;;;22.47;59.62;101726.94;5051641;28;20419;-39
2022/07/19 01:28:21;;;;;;;10.68;5.35;;;;;;;22.41;59.45;101719.69;5051799;28;20029;-35
2022/07/19 01:30:47;;;;;;;8.15;6.05;;;;;;;22.33;60.17;101717.31;5050374;28;20116;-35
2022/07/19 01:33:12;;;;;;;14.00;6.07;;;;;;;22.24;60.83;101716.81;5033555;28;20067;-38
2022/07/19 01:35:37;;;;;;;11.73;6.20;;;;;;;22.19;61.07;101715.84;5033444;28;20028;-36
2022/07/19 01:38:03;;;;;;;15.65;5.78;;;;;;;22.17;61.35;101713.34;5050236;28;20369;-39
2022/07/19 01:40:28;;;;;;;12.23;6.30;;;;;;;22.19;61.12;101721.34;5051428;28;20079;-35
2022/07/19 01:42:53;;;;;;;10.05;6.00;;;;;;;22.18;61.02;101719.66;5051464;28;20112;-38
2022/07/19 01:45:19;;;;;;;16.63;6.93;;;;;;;22.12;61.15;101716.78;5051200;28;20110;-35
2022/07/19 01:47:45;;;;;;;12.48;6.13;;;;;;;22.07;61.46;101713.09;5051062;28;20036;-40
2022/07/19 01:50:17;;;;;;;11.52;5.75;;;;;;;22.10;61.09;101712.63;5049728;28;20021;-37
2022/07/19 01:52:42;;;;;;;14.05;6.32;;;;;;;22.14;61.20;101705.56;5049192;28;20344;-39
2022/07/19 01:55:08;;;;;;;9.38;6.13;;;;;;;22.17;61.03;101709.72;5050961;28;20029;-40
2022/07/19 01:57:33;;;;;;;12.82;6.10;;;;;;;22.16;61.07;101708.06;5050807;28;20040;-35
2022/07/19 01:59:59;;;;;;;11.40;6.00;;;;;;;22.16;61.02;101710.81;5050905;28;20027;-39
2022/07/19 02:02:24;;;;;;;11.88;5.93;;;;;;;22.09;61.18;101711.78;5050680;28;20537;-38
2022/07/19 02:04:50;;;;;;;12.32;6.30;;;;;;;22.03;61.74;101704.50;5051049;28;20029;-36
2022/07/19 02:07:15;;;;;;;12.85;7.00;;;;;;;21.99;61.60;101700.56;5050678;28;20086;-36
2022/07/19 02:09:41;;;;;;;11.52;6.28;;;;;;;21.92;62.05;101708.06;5049584;28;20025;-37
2022/07/19 02:12:06;;;;;;;16.08;6.82;;;;;;;21.87;62.17;101703.28;5050211;28;20021;-40
2022/07/19 02:14:31;;;;;;;9.77;5.50;;;;;;;21.86;62.64;101700.78;5050991;28;20024;-38
2022/07/19 02:16:57;;;;;;;13.75;6.55;;;;;;;21.87;62.25;101702.44;5050773;28;20028;-38
2022/07/19 02:19:22;;;;;;;10.52;6.75;;;;;;;21.79;62.30;101695.41;5050676;28;20349;-39
2022/07/19 02:21:47;;;;;;;11.43;6.35;;;;;;;21.80;62.77;101690.75;5050631;28;20033;-36
2022/07/19 02:24:13;;;;;;;12.75;6.22;;;;;;;21.78;62.53;101698.41;5050627;28;20044;-37
2022/07/19 02:26:39;;;;;;;14.93;6.35;;;;;;;21.75;62.74;101694.22;5050542;28;20044;-39
2022/07/19 02:29:04;;;;;;;14.27;6.65;;;;;;;21.72;62.65;101688.38;5049467;28;20023;-38
2022/07/19 02:31:30;;;;;;;11.13;6.60;;;;;;;21.68;62.48;101693.50;5050654;28;20112;-39
2022/07/19 02:33:55;;;;;;;11.15;6.70;;;;;;;21.63;62.79;101682.41;5091007;22;20033;-77
2022/07/19 02:36:20;;;;;;;12.50;6.28;;;;;;;21.60;63.04;101685.63;5039119;28;20093;-78
2022/07/19 02:38:46;;;;;;;12.40;6.40;;;;;;;21.61;63.30;101688.09;5032098;28;20041;-77
2022/07/19 02:41:13;;;;;;;8.77;5.90;;;;;;;21.63;63.29;101691.44;5048887;28;20056;-78
2022/07/19 02:43:39;;;;;;;12.17;6.43;;;;;;;21.64;62.72;101687.66;5047934;28;20045;-78
2022/07/19 02:46:04;;;;;;;12.65;6.43;;;;;;;21.66;62.92;101688.25;5048984;28;20033;-77
2022/07/19 02:48:30;;;;;;;14.45;6.88;;;;;;;21.67;62.47;101695.41;5050303;28;20036;-78
2022/07/19 02:50:56;;;;;;;18.40;6.88;;;;;;;21.72;62.33;101689.19;5051035;28;20034;-78
2022/07/19 02:53:21;;;;;;;25.67;8.32;;;;;;;21.73;61.85;101693.63;5050980;28;20045;-77
2022/07/19 02:55:47;;;;;;;16.13;6.85;;;;;;;21.73;61.85;101687.31;5049968;28;20021;-77
2022/07/19 02:58:12;;;;;;;14.93;6.38;;;;;;;21.68;61.89;101685.28;5049926;28;20632;-78
2022/07/19 03:00:37;;;;;;;15.35;7.43;;;;;;;21.65;61.90;101689.31;5051183;28;20033;-78
2022/07/19 03:05:48;;;;;;;16.73;6.30;;;;;;;21.50;62.34;101683.44;5049662;28;20048;-78
2022/07/19 03:08:14;;;;;;;12.23;6.68;;;;;;;21.47;62.71;101683.91;5044661;28;20095;-78
2022/07/19 03:10:39;;;;;;;15.88;6.80;;;;;;;21.46;62.71;101679.53;5035409;28;20034;-76
2022/07/19 03:13:04;;;;;;;12.55;6.80;;;;;;;21.42;62.38;101681.88;5018524;28;20014;-76
2022/07/19 03:15:30;;;;;;;15.25;6.88;;;;;;;21.44;62.58;101676.19;5050774;28;20025;-78
2022/07/19 03:17:55;;;;;;;21.08;7.43;;;;;;;21.44;62.57;101676.19;5033214;28;20032;-77
2022/07/19 03:20:22;;;;;;;20.23;6.93;;;;;;;21.49;62.33;101673.56;5049600;28;20044;-78
2022/07/19 03:22:48;;;;;;;21.50;7.40;;;;;;;21.50;61.58;101669.75;5031849;28;20037;-77
2022/07/19 03:25:14;;;;;;;19.77;7.68;;;;;;;21.49;61.66;101668.09;5033285;28;20036;-77
2022/07/19 03:27:39;;;;;;;19.40;8.07;;;;;;;21.44;62.16;101662.47;5034024;28;20025;-77
2022/07/19 03:30:06;;;;;;;30.10;8.00;;;;;;;21.42;62.31;101672.81;5034897;28;20022;-77
2022/07/19 03:32:31;;;;;;;18.88;7.40;;;;;;;21.35;62.72;101670.16;5053417;28;20040;-78
2022/07/19 03:34:56;;;;;;;21.17;7.68;;;;;;;21.32;62.89;101672.53;5057412;28;20100;-77
2022/07/19 03:37:22;;;;;;;13.57;7.13;;;;;;;21.27;63.00;101678.69;5058938;28;20029;-77
2022/07/19 03:39:47;;;;;;;18.88;7.50;;;;;;;21.26;62.74;101675.13;5057663;28;20009;-77
2022/07/19 03:42:12;;;;;;;16.85;7.82;;;;;;;21.28;62.73;101683.13;5045676;28;20010;-77
2022/07/19 03:44:38;;;;;;;12.60;7.00;;;;;;;21.30;62.84;101674.66;5057571;28;20029;-78
2022/07/19 03:47:03;;;;;;;21.17;7.15;;;;;;;21.33;62.91;101680.53;5059211;28;20048;-78
2022/07/19 03:49:28;;;;;;;27.05;6.90;;;;;;;21.33;62.38;101669.56;5058456;28;20068;-78
2022/07/19 03:51:54;;;;;;;13.77;6.78;;;;;;;21.31;62.49;101677.16;5058588;28;20028;-78
2022/07/19 03:54:19;;;;;;;13.15;6.63;;;;;;;21.27;62.59;101671.34;5058436;28;20018;-78
2022/07/19 03:56:44;;;;;;;18.35;7.35;;;;;;;21.27;63.02;101676.81;5056721;28;20013;-78
2022/07/19 03:59:10;;;;;;;14.30;7.45;;;;;;;21.27;62.89;101673.22;5056753;28;20093;-78
2022/07/19 04:01:37;;;;;;;13.82;6.72;;;;;;;21.31;62.69;101670.88;5057667;28;20024;-78
2022/07/19 04:04:03;;;;;;;17.15;7.13;;;;;;;21.27;62.81;101679.56;5056763;28;20021;-78
2022/07/19 04:06:28;;;;;;;15.98;6.88;;;;;;;21.25;63.09;101676.22;5040465;28;20121;-78
2022/07/19 04:08:54;;;;;;;23.02;7.50;;;;;;;21.21;63.27;101672.25;5056973;28;20021;-78
2022/07/19 04:11:19;;;;;;;19.45;7.45;;;;;;;21.15;63.38;101677.84;5057181;28;20045;-77
2022/07/19 04:13:44;;;;;;;19.80;8.25;;;;;;;21.12;63.05;101673.66;5056430;28;20030;-78
2022/07/19 04:16:10;;;;;;;33.30;8.77;;;;;;;21.10;63.67;101672.22;5054686;28;20029;-78
2022/07/19 04:18:37;;;;;;;17.42;7.45;;;;;;;21.13;63.97;101672.56;5055973;28;20088;-77
2022/07/19 04:21:02;;;;;;;17.88;7.95;;;;;;;21.22;64.00;101671.19;5055515;28;20030;-78
2022/07/19 04:23:28;;;;;;;32.10;8.60;;;;;;;21.27;63.45;101676.81;5054891;28;20068;-78
2022/07/19 04:25:53;;;;;;;22.70;9.45;;;;;;;21.29;62.87;101675.72;5036614;28;20036;-78
2022/07/19 04:28:19;;;;;;;21.67;8.18;;;;;;;21.26;62.67;101680.59;5050982;28;20019;-78
2022/07/19 04:30:44;;;;;;;23.40;8.32;;;;;;;21.29;63.20;101678.47;5050163;28;20032;-78
2022/07/19 04:33:13;;;;;;;36.63;10.55;;;;;;;21.29;62.71;101673.81;5052377;28;20041;-78
2022/07/19 04:35:38;;;;;;;25.25;8.68;;;;;;;21.37;63.83;101669.91;5054658;28;20084;-78
2022/07/19 04:38:03;;;;;;;42.08;9.70;;;;;;;21.43;62.89;101675.34;5055084;28;20044;-78
2022/07/19 04:40:29;;;;;;;26.70;9.25;;;;;;;21.49;62.93;101670.81;5054097;28;20108;-78
2022/07/19 04:42:55;;;;;;;30.35;9.45;;;;;;;21.51;62.54;101674.16;5054379;28;20057;-78
2022/07/19 04:45:20;;;;;;;23.42;8.57;;;;;;;21.53;62.45;101662.97;5033746;28;20017;-78
2022/07/19 04:47:45;;;;;;;29.15;9.68;;;;;;;21.63;62.39;101666.78;5051516;28;20399;-78
2022/07/19 04:50:11;;;;;;;32.90;10.63;;;;;;;21.74;61.41;101669.78;5050423;28;20036;-77
2022/07/19 04:52:36;;;;;;;38.83;9.85;;;;;;;21.81;61.34;101668.63;5050615;28;20025;-77
2022/07/19 04:55:01;;;;;;;40.90;9.95;;;;;;;21.85;61.54;101667.09;5048729;28;20033;-78
2022/07/19 04:57:27;;;;;;;36.20;10.73;;;;;;;21.94;61.17;101673.03;5053653;28;20049;-78
2022/07/19 04:59:52;;;;;;;29.73;8.85;;;;;;;22.07;60.56;101664.56;5052550;28;20037;-77
2022/07/19 05:02:17;;;;;;;39.22;10.18;;;;;;;22.16;60.74;101664.22;5053337;28;20052;-78
2022/07/19 05:04:43;;;;;;;35.00;11.25;;;;;;;22.23;60.12;101667.69;5049244;28;20030;-78
2022/07/19 05:07:08;;;;;;;26.33;8.27;;;;;;;22.38;59.88;101668.06;5050026;28;20068;-78
2022/07/19 05:09:34;;;;;;;22.10;9.57;;;;;;;22.55;58.99;101668.13;5047169;28;20018;-78
2022/07/19 05:12:00;;;;;;;33.58;9.70;;;;;;;22.67;58.67;101668.09;5044298;28;20049;-79
2022/07/19 05:14:26;;;;;;;38.33;10.95;;;;;;;22.72;58.27;101668.19;5026145;28;20487;-78
2022/07/19 05:16:52;;;;;;;21.67;9.40;;;;;;;22.82;57.98;101673.88;5044189;28;20088;-78
2022/07/19 05:19:18;;;;;;;29.38;9.50;;;;;;;22.91;57.17;101675.19;5045592;28;20033;-78
2022/07/19 05:21:43;;;;;;;17.98;8.73;;;;;;;23.05;56.73;101663.94;5044542;28;20461;-78
2022/07/19 05:24:09;;;;;;;22.45;8.88;;;;;;;23.10;56.85;101666.78;5043648;28;20026;-78
2022/07/19 05:26:35;;;;;;;18.33;8.93;;;;;;;23.22;56.63;101660.16;5051684;28;20032;-78
2022/07/19 05:29:01;;;;;;;20.48;8.43;;;;;;;23.29;57.31;101664.66;5053577;28;20018;-78
2022/07/19 05:31:26;;;;;;;32.80;10.13;;;;;;;23.37;56.12;101665.09;5048998;28;20048;-78
2022/07/19 05:33:52;;;;;;;22.10;9.07;;;;;;;23.49;56.02;101669.69;5045062;28;20050;-78
2022/07/19 05:36:17;;;;;;;24.48;9.60;;;;;;;23.60;56.31;101677.03;5043217;28;20051;-78
2022/07/19 05:38:43;;;;;;;28.17;9.38;;;;;;;23.69;55.75;101663.69;5046247;28;20052;-79
2022/07/19 05:41:10;;;;;;;27.65;9.35;;;;;;;23.90;54.54;101670.38;5049912;28;20037;-78
2022/07/19 05:43:36;;;;;;;19.83;8.20;;;;;;;23.97;54.43;101671.88;5047641;28;20017;-78
2022/07/19 05:46:02;;;;;;;20.70;9.18;;;;;;;24.09;53.99;101674.53;5048868;28;20025;-78
2022/07/19 05:48:28;;;;;;;32.13;9.00;;;;;;;24.17;53.42;101665.88;5050201;28;20045;-78
2022/07/19 05:50:54;;;;;;;22.65;9.52;;;;;;;24.19;52.32;101669.19;5048017;28;20037;-78
2022/07/19 05:53:19;;;;;;;24.58;8.80;;;;;;;24.33;52.52;101666.91;5043416;28;20025;-78
2022/07/19 05:55:45;;;;;;;27.25;9.13;;;;;;;24.48;51.67;101669.06;5033285;28;20045;-77
2022/07/19 05:58:10;;;;;;;30.45;9.50;;;;;;;24.54;51.49;101670.81;5038035;28;20056;-78
2022/07/19 06:00:36;;;;;;;20.08;9.80;;;;;;;24.58;51.36;101677.44;5036325;28;20044;-78
2022/07/19 06:03:03;;;;;;;15.10;7.90;;;;;;;24.73;51.59;101669.38;5037546;28;20480;-78
2022/07/19 06:05:28;;;;;;;17.55;8.98;;;;;;;24.87;51.25;101666.25;5040593;28;20055;-78
2022/07/19 06:07:53;;;;;;;18.52;8.80;;;;;;;25.07;50.50;101663.72;5043302;28;20021;-78
2022/07/19 06:10:19;;;;;;;16.92;9.77;;;;;;;25.21;49.89;101664.16;5046167;28;20045;-77
2022/07/19 06:12:44;;;;;;;19.20;8.75;;;;;;;25.31;49.48;101660.69;5043509;28;20017;-80
2022/07/19 06:15:10;;;;;;;14.77;9.32;;;;;;;25.39;49.87;101666.53;5047446;28;20025;-78
2022/07/19 06:17:35;;;;;;;16.58;9.77;;;;;;;25.40;49.34;101662.69;5050084;28;20425;-77
2022/07/19 06:20:01;;;;;;;21.60;9.13;;;;;;;25.44;49.16;101657.50;5050892;28;20009;-78
2022/07/19 06:22:30;;;;;;;25.73;9.70;;;;;;;25.57;49.20;101662.56;5047496;28;20361;-78
2022/07/19 06:24:55;;;;;;;21.77;9.85;;;;;;;25.86;48.92;101666.94;5052200;28;20014;-78
2022/07/19 06:27:20;;;;;;;23.50;9.40;;;;;;;26.30;47.65;101664.75;5047094;28;20024;-77
2022/07/19 06:29:46;;;;;;;19.02;10.40;;;;;;;26.90;45.22;101670.84;5049144;28;20083;-78
2022/07/19 06:32:11;;;;;;;19.08;9.75;;;;;;;27.66;44.37;101667.38;5047030;28;20045;-78
2022/07/19 06:34:36;;;;;;;21.27;8.48;;;;;;;28.61;42.22;101666.66;5048307;28;20114;-78
2022/07/19 06:37:02;;;;;;;18.08;9.57;;;;;;;28.83;40.86;101676.53;5051099;28;20013;-77
2022/07/19 06:39:27;;;;;;;22.35;8.90;;;;;;;29.10;40.57;101665.91;5035265;28;20030;-77
2022/07/19 06:41:52;;;;;;;19.90;9.13;;;;;;;29.47;40.12;101670.06;5049651;28;20056;-78
2022/07/19 06:44:18;;;;;;;18.73;8.57;;;;;;;29.62;39.00;101662.72;5045587;28;20009;-77
2022/07/19 06:46:44;;;;;;;19.73;9.07;;;;;;;29.56;38.73;101667.50;5051043;28;20081;-77
2022/07/19 06:49:09;;;;;;;16.93;8.90;;;;;;;29.81;38.46;101662.88;5046622;28;20032;-77
2022/07/19 06:51:35;;;;;;;25.15;9.07;;;;;;;29.95;37.74;101661.88;5042882;28;20469;-77
2022/07/19 06:54:00;;;;;;;18.88;8.32;;;;;;;29.89;38.04;101662.25;5050081;28;20026;-77
2022/07/19 06:56:25;;;;;;;14.90;7.85;;;;;;;30.24;37.52;101658.28;5048504;28;20025;-77
2022/07/19 06:58:51;;;;;;;28.33;7.55;;;;;;;30.53;36.74;101654.63;5053154;28;20094;-78
2022/07/19 07:01:17;;;;;;;17.13;7.82;;;;;;;30.83;34.97;101650.63;5050911;28;20037;-77
2022/07/19 07:03:43;;;;;;;22.58;6.50;;;;;;;30.90;35.06;101651.06;5049636;28;20030;-78
2022/07/19 07:06:08;;;;;;;17.60;7.50;;;;;;;31.26;35.15;101648.59;5045658;28;20076;-78
2022/07/19 07:08:34;;;;;;;12.37;6.30;;;;;;;31.92;35.33;101645.81;5027826;28;20048;-78
2022/07/19 07:10:59;;;;;;;12.57;6.37;;;;;;;32.29;33.19;101647.63;5050395;28;20048;-77
2022/07/19 07:13:24;;;;;;;14.60;7.03;;;;;;;32.32;33.18;101646.19;5044106;28;20090;-77
2022/07/19 07:15:50;;;;;;;14.80;6.40;;;;;;;32.82;32.93;101643.47;5044686;28;20034;-78
2022/07/19 07:18:15;;;;;;;17.53;6.00;;;;;;;33.33;31.68;101633.91;5026522;28;20029;-79
2022/07/19 07:20:40;;;;;;;14.73;6.17;;;;;;;33.47;31.59;101638.59;5026527;28;20314;-78
2022/07/19 07:23:06;;;;;;;12.33;5.70;;;;;;;34.94;29.60;101632.78;5043135;28;20034;-80
2022/07/19 07:25:31;;;;;;;20.47;6.17;;;;;;;35.91;27.08;101642.72;5054476;28;20045;-78
2022/07/19 07:27:57;;;;;;;15.00;6.20;;;;;;;36.22;26.89;101642.47;5049335;28;20033;-79
2022/07/19 07:30:24;;;;;;;13.23;6.67;;;;;;;36.70;26.41;101639.22;5051285;28;20024;-78
2022/07/19 07:32:49;;;;;;;17.23;7.93;;;;;;;36.34;25.73;101644.53;5052843;28;20101;-79
2022/07/19 07:35:14;;;;;;;16.00;9.10;;;;;;;36.18;26.14;101641.47;5053063;28;20050;-79
2022/07/19 07:37:40;;;;;;;20.23;8.23;;;;;;;36.23;26.41;101646.88;5054144;28;20022;-79
2022/07/19 07:40:06;;;;;;;23.43;8.50;;;;;;;36.15;26.26;101642.16;5055689;28;20073;-78
2022/07/19 07:42:32;;;;;;;18.13;8.13;;;;;;;35.93;26.82;101641.22;5052401;28;20029;-78
2022/07/19 07:44:59;;;;;;;21.63;9.40;;;;;;;35.80;26.92;101642.28;5037250;28;20037;-78
2022/07/19 07:47:24;;;;;;;23.27;8.88;;;;;;;35.95;26.61;101643.72;5051737;28;20013;-77
2022/07/19 07:49:50;;;;;;;19.67;9.53;;;;;;;35.47;26.79;101633.59;5053132;28;20081;-78
2022/07/19 07:52:16;;;;;;;22.80;9.13;;;;;;;36.04;26.90;101630.47;5050225;28;20101;-78
2022/07/19 07:54:41;;;;;;;22.07;9.83;;;;;;;35.91;26.01;101635.13;5050573;28;20294;-78
2022/07/19 07:57:06;;;;;;;37.73;10.77;;;;;;;36.18;26.55;101641.47;5049786;28;20044;-78
2022/07/19 07:59:32;;;;;;;17.73;10.10;;;;;;;36.24;25.58;101637.34;5052557;28;20076;-79
2022/07/19 08:01:57;;;;;;;23.57;8.67;;;;;;;36.25;26.42;101641.78;5050692;28;20029;-79
2022/07/19 08:04:22;;;;;;;16.03;8.17;;;;;;;37.32;25.09;101633.94;5055144;28;20032;-79
2022/07/19 08:06:48;;;;;;;20.83;8.03;;;;;;;37.93;24.01;101638.91;5054653;28;20014;-79
2022/07/19 08:09:13;;;;;;;20.17;7.93;;;;;;;37.97;24.28;101628.63;5053988;28;20014;-79
2022/07/19 08:11:38;;;;;;;22.53;8.30;;;;;;;38.27;23.30;101622.78;5039523;28;20033;-79
2022/07/19 08:14:04;;;;;;;25.57;8.70;;;;;;;37.98;23.34;101628.28;5052879;28;20060;-79
2022/07/19 08:16:30;;;;;;;22.40;8.10;;;;;;;38.07;23.05;101619.72;5039120;28;20013;-79
2022/07/19 08:18:56;;;;;;;19.92;7.68;;;;;;;38.11;23.25;101609.44;5055788;28;20017;-78
2022/07/19 08:21:21;;;;;;;14.57;7.93;;;;;;;37.08;23.87;101620.63;5043503;28;20060;-79
2022/07/19 08:23:46;;;;;;;23.73;8.63;;;;;;;36.99;24.38;101619.84;5043540;28;20057;-79
2022/07/19 08:26:12;;;;;;;15.43;6.80;;;;;;;37.28;23.68;101614.16;5050450;28;20246;-79
2022/07/19 08:28:37;;;;;;;17.67;7.57;;;;;;;38.05;22.89;101605.22;5052119;28;20040;-78
2022/07/19 08:31:02;;;;;;;19.23;6.80;;;;;;;38.57;22.54;101614.91;5055221;28;20075;-79
2022/07/19 08:33:28;;;;;;;26.77;7.17;;;;;;;39.07;21.57;101605.97;5053820;28;20053;-78
2022/07/19 08:35:53;;;;;;;26.47;8.07;;;;;;;38.86;22.42;101605.31;5051712;28;20029;-78
2022/07/19 08:38:19;;;;;;;20.23;7.10;;;;;;;38.13;22.52;101607.09;5051529;28;20021;-78
2022/07/19 08:40:45;;;;;;;21.33;7.97;;;;;;;37.65;23.33;101608.66;5045928;28;20025;-79
2022/07/19 08:43:13;;;;;;;15.30;6.85;;;;;;;37.58;23.18;101602.81;5041805;28;20006;-78
2022/07/19 08:45:40;;;;;;;21.40;7.30;;;;;;;37.78;23.92;101613.13;5046399;28;20044;-78
2022/07/19 08:48:07;;;;;;;20.17;7.57;;;;;;;38.80;22.55;101612.41;5030693;28;20034;-79
2022/07/19 08:50:32;;;;;;;;;;;;;;;37.84;23.16;101610.09;5045483;28;20029;-78
2022/07/19 08:52:59;;;;;;;22.48;6.13;;;;;;;38.44;23.32;101602.84;5045073;28;19939;-80
2022/07/19 08:55:24;;;;;;;17.90;5.90;;;;;;;38.32;22.28;101602.88;5050578;28;20040;-78
2022/07/19 08:58:01;;;;;;;16.38;5.65;;;;;;;36.87;23.53;101606.59;5046914;28;20029;-77
2022/07/19 09:00:31;;;;;;;15.25;5.95;;;;;;;36.20;24.21;101605.53;5045420;28;20036;-78
2022/07/19 09:03:04;;;;;;;16.00;4.25;;;;;;;36.45;23.98;101607.38;5046891;28;20029;-77
2022/07/19 09:05:31;;;;;;;21.02;4.32;;;;;;;37.06;22.69;101608.94;5049414;28;20089;-79
2022/07/19 09:08:08;;;;;;;17.02;4.45;;;;;;;36.82;23.69;101610.41;5050371;28;20079;-78
2022/07/19 09:10:35;;;;;;;12.25;4.20;;;;;;;37.82;22.34;101606.81;5049367;28;20109;-78
2022/07/19 09:13:09;;;;;;;15.60;4.03;;;;;;;38.89;21.97;101598.19;5051566;28;20028;-78
2022/07/19 09:15:50;;;;;;;19.90;4.30;;;;;;;38.45;21.55;101595.25;5039973;28;20030;-80
2022/07/19 09:18:27;;;;;;;12.50;3.88;;;;;;;38.41;21.96;101595.09;5037657;28;20033;-78
2022/07/19 09:21:03;;;;;;;10.40;3.50;;;;;;;38.22;21.51;101587.28;5024694;28;20029;-78
2022/07/19 09:23:28;;;;;;;;;;;;;;;37.69;22.02;101591.94;5039125;28;20026;-78
2022/07/19 09:25:59;;;;;;;7.18;3.50;;;;;;;38.32;21.62;101595.25;5034358;28;19931;-78
2022/07/19 09:28:26;;;;;;;14.32;4.20;;;;;;;37.31;22.54;101588.22;5037231;28;20473;-79
2022/07/19 09:30:55;;;;;;;10.55;3.67;;;;;;;37.46;22.02;101588.69;5038175;28;20025;-79
2022/07/19 09:33:23;;;;;;;10.30;3.42;;;;;;;37.50;21.92;101575.66;5042532;28;20030;-77
2022/07/19 09:35:51;;;;;;;10.07;3.60;;;;;;;37.83;21.34;101581.16;5036064;28;20036;-80
2022/07/19 09:38:18;;;;;;;12.15;3.97;;;;;;;37.39;21.59;101578.06;5040133;28;20033;-77
2022/07/19 09:40:44;;;;;;;9.27;3.30;;;;;;;37.37;21.48;101573.97;5032424;28;20032;-77
2022/07/19 09:43:09;;;;;;;8.33;3.50;;;;;;;38.20;21.59;101570.75;5033137;28;20034;-77
2022/07/19 09:45:35;;;;;;;19.93;3.83;;;;;;;38.22;20.65;101574.03;5036409;28;20440;-77
2022/07/19 09:48:02;;;;;;;14.53;3.30;;;;;;;38.88;20.10;101569.25;5037436;28;20060;-79
2022/07/19 09:50:28;;;;;;;14.65;3.50;;;;;;;37.96;19.72;101580.03;5041618;28;20034;-79
2022/07/19 09:52:53;;;;;;;8.77;3.27;;;;;;;37.66;20.16;101578.59;5044777;28;20053;-78
2022/07/19 09:55:19;;;;;;;8.60;3.58;;;;;;;37.46;20.36;101571.84;5035353;28;20100;-77
2022/07/19 09:57:50;;;;;;;15.63;3.20;;;;;;;37.65;20.74;101569.31;5034524;28;20040;-78
2022/07/19 10:00:18;;;;;;;10.50;3.58;;;;;;;37.53;21.00;101575.75;5035132;28;20021;-77
2022/07/19 10:02:48;;;;;;;12.02;3.60;;;;;;;38.15;19.43;101565.38;5035429;28;20021;-78
2022/07/19 10:05:14;;;;;;;14.57;3.40;;;;;;;38.19;19.68;101557.88;5038242;28;20072;-78
2022/07/19 10:07:40;;;;;;;13.50;3.60;;;;;;;38.48;19.88;101552.38;5035064;28;20037;-78
2022/07/19 10:10:10;;;;;;;13.77;4.03;;;;;;;38.62;19.16;101550.78;5032130;28;20230;-78
2022/07/19 10:12:37;;;;;;;13.15;3.55;;;;;;;38.86;18.75;101549.03;5037026;28;20024;-77
2022/07/19 10:15:04;;;;;;;12.93;3.78;;;;;;;39.46;18.88;101549.94;5019844;28;20017;-78
2022/07/19 10:17:34;;;;;;;15.25;3.95;;;;;;;38.91;19.29;101534.75;5033443;28;20433;-78
2022/07/19 10:20:00;;;;;;;8.27;3.20;;;;;;;38.60;18.80;101536.28;5035915;28;20389;-78
2022/07/19 10:22:26;;;;;;;6.32;3.53;;;;;;;38.23;19.48;101524.25;5035559;28;20029;-77
2022/07/19 10:25:12;;;;;;;10.85;3.05;;;;;;;38.53;19.25;101536.06;5035073;28;20127;-77
2022/07/19 10:27:40;;;;;;;15.27;3.35;;;;;;;39.43;18.77;101539.41;5033950;28;20041;-78
2022/07/19 10:30:12;;;;;;;17.92;3.55;;;;;;;39.96;17.98;101529.84;5038118;28;20112;-78
2022/07/19 10:32:45;;;;;;;15.43;4.10;;;;;;;39.45;18.33;101537.06;5036878;28;20112;-78
2022/07/19 10:35:38;;;;;;;14.65;3.30;;;;;;;39.05;17.73;101523.06;5035880;28;20057;-78
2022/07/19 10:38:10;;;;;;;12.52;3.22;;;;;;;39.56;18.55;101530.88;5036406;28;20053;-77
2022/07/19 10:40:50;;;;;;;9.82;2.80;;;;;;;40.15;17.48;101529.88;5037390;28;20022;-77
2022/07/19 10:43:20;;;;;;;5.75;3.00;;;;;;;39.72;16.95;101523.22;5036390;28;20077;-79
2022/07/19 10:46:04;;;;;;;8.73;3.10;;;;;;;39.27;18.29;101521.66;5035361;28;20017;-78
2022/07/19 10:48:48;;;;;;;6.15;3.20;;;;;;;39.78;18.07;101520.97;5035048;28;20112;-77
2022/07/19 10:51:28;;;;;;;18.08;3.17;;;;;;;39.58;18.59;101517.22;5032328;28;20032;-78
2022/07/19 10:53:55;;;;;;;11.88;3.20;;;;;;;40.72;17.96;101510.63;5037951;28;20107;-80
2022/07/19 10:56:20;;;;;;;10.73;3.55;;;;;;;40.04;17.66;101515.53;5034741;28;20539;-78
2022/07/19 10:58:49;;;;;;;9.53;3.50;;;;;;;39.57;18.72;101509.97;5033965;28;20061;-79
2022/07/19 11:01:17;;;;;;;9.60;2.97;;;;;;;39.26;18.86;101511.56;5036022;28;20052;-79
2022/07/19 11:03:42;;;;;;;17.60;3.08;;;;;;;39.57;18.96;101498.69;5035124;28;20026;-79
2022/07/19 11:06:08;;;;;;;9.07;3.23;;;;;;;40.03;18.31;101504.66;5018342;28;20032;-77
2022/07/19 11:08:41;;;;;;;8.53;3.27;;;;;;;39.50;18.02;101499.34;5034805;28;20354;-80
2022/07/19 11:11:09;;;;;;;10.40;3.15;;;;;;;39.82;18.21;101499.34;5036966;28;20166;-79
2022/07/19 11:13:36;;;;;;;9.23;3.30;;;;;;;39.36;18.54;101505.41;5026976;28;20055;-78
2022/07/19 11:16:02;;;;;;;9.90;2.70;;;;;;;39.01;18.40;101500.47;5038643;28;20033;-78
2022/07/19 11:18:28;;;;;;;;;;;;;;;39.45;17.84;101491.16;5035406;28;20033;-77